Time;durP1;ratioP1;P1;durP2;ratioP2;P2;SDS_P1;SDS_P2;PMS_P1;PMS_P2;Temp;Humidity;BMP_temperature;BMP_pressure;BME280_temperature;BME280_humidity;BME280_pressure;Samples;Min_cycle;Max_cycle;Signal;HPM_P1;HPM_P2
2022/03/29 00:00:27;;;;;;;2.88;2.67;;;;;;;;;;5097077;28;20590;-54
2022/03/29 00:02:55;;;;;;;2.90;2.70;;;;;;;;;;5096968;28;20204;-54
2022/03/29 00:05:22;;;;;;;2.67;2.47;;;;;;;;;;5097683;28;20235;-54
2022/03/29 00:07:51;;;;;;;2.97;2.78;;;;;;;;;;5100356;28;20218;-54
2022/03/29 00:10:18;;;;;;;2.92;2.70;;;;;;;;;;5100386;28;20203;-54
2022/03/29 00:12:46;;;;;;;3.00;2.80;;;;;;;;;;5100902;28;20288;-54
2022/03/29 00:15:15;;;;;;;2.85;2.65;;;;;;;;;;5100838;28;20261;-54
2022/03/29 00:17:43;;;;;;;2.88;2.67;;;;;;;;;;5100670;28;20203;-54
2022/03/29 00:20:11;;;;;;;2.83;2.63;;;;;;;;;;5100394;28;20199;-54
2022/03/29 00:22:39;;;;;;;2.72;2.53;;;;;;;;;;5100855;28;20280;-54
2022/03/29 00:25:07;;;;;;;2.88;2.67;;;;;;;;;;5100465;28;20227;-54
2022/03/29 00:27:35;;;;;;;2.97;2.60;;;;;;;;;;5100707;28;20289;-54
2022/03/29 00:30:03;;;;;;;2.80;2.60;;;;;;;;;;5100096;28;20227;-54
2022/03/29 00:32:32;;;;;;;2.90;2.70;;;;;;;;;;5100883;28;20211;-54
2022/03/29 00:35:00;;;;;;;2.97;2.78;;;;;;;;;;5100303;28;20495;-54
2022/03/29 00:37:27;;;;;;;2.95;2.70;;;;;;;;;;5100447;28;20242;-54
2022/03/29 00:39:55;;;;;;;2.97;2.67;;;;;;;;;;5100368;28;20226;-54
2022/03/29 00:42:23;;;;;;;2.85;2.65;;;;;;;;;;5100352;28;20257;-54
2022/03/29 00:44:50;;;;;;;2.97;2.78;;;;;;;;;;5100064;28;20521;-54
2022/03/29 00:47:18;;;;;;;2.92;2.72;;;;;;;;;;5100044;28;20238;-54
2022/03/29 00:49:47;;;;;;;2.83;2.63;;;;;;;;;;5099647;28;20305;-54
2022/03/29 00:52:15;;;;;;;2.80;2.60;;;;;;;;;;5100063;28;20204;-54
2022/03/29 00:54:42;;;;;;;2.95;2.75;;;;;;;;;;5099875;28;20200;-54
2022/03/29 00:57:11;;;;;;;3.97;2.55;;;;;;;;;;5100028;28;20211;-54
2022/03/29 00:59:39;;;;;;;3.20;3.00;;;;;;;;;;5099853;28;20204;-54
2022/03/29 01:02:07;;;;;;;3.00;2.80;;;;;;;;;;5099863;28;20212;-54
2022/03/29 01:04:35;;;;;;;2.72;2.53;;;;;;;;;;5099855;28;20269;-54
2022/03/29 01:07:04;;;;;;;2.63;2.42;;;;;;;;;;5100004;28;20204;-54
2022/03/29 01:09:32;;;;;;;2.90;2.70;;;;;;;;;;5100061;28;20574;-54
2022/03/29 01:12:00;;;;;;;2.92;2.65;;;;;;;;;;5099767;28;20203;-54
2022/03/29 01:14:28;;;;;;;3.00;2.80;;;;;;;;;;5099005;28;20196;-54
2022/03/29 01:19:43;;;;;;;2.92;2.72;;;;;;;;;;5099095;28;20497;-54
2022/03/29 01:22:12;;;;;;;2.83;2.63;;;;;;;;;;5099542;28;20265;-54
2022/03/29 01:24:43;;;;;;;2.80;2.60;;;;;;;;;;5099161;28;20231;-54
2022/03/29 01:27:10;;;;;;;2.85;2.65;;;;;;;;;;5099767;28;20518;-54
2022/03/29 01:29:39;;;;;;;3.03;2.83;;;;;;;;;;5099378;28;20250;-54
2022/03/29 01:32:09;;;;;;;2.75;2.55;;;;;;;;;;5099590;28;20230;-54
2022/03/29 01:34:38;;;;;;;3.22;3.03;;;;;;;;;;5099674;28;20223;-54
2022/03/29 01:37:06;;;;;;;2.80;2.60;;;;;;;;;;5099276;28;20286;-53
2022/03/29 01:39:35;;;;;;;2.67;2.47;;;;;;;;;;5099401;28;20204;-53
2022/03/29 01:42:04;;;;;;;2.58;2.38;;;;;;;;;;5098692;28;20586;-54
2022/03/29 01:44:33;;;;;;;3.15;2.92;;;;;;;;;;5099023;28;20224;-54
2022/03/29 01:47:01;;;;;;;2.78;2.58;;;;;;;;;;5099351;28;20208;-53
2022/03/29 01:49:28;;;;;;;2.97;2.78;;;;;;;;;;5098782;28;20658;-53
2022/03/29 01:51:57;;;;;;;3.00;2.80;;;;;;;;;;5099244;28;20218;-54
2022/03/29 01:54:25;;;;;;;3.35;3.13;;;;;;;;;;5098939;28;20255;-54
2022/03/29 01:56:54;;;;;;;2.80;2.60;;;;;;;;;;5099144;28;20264;-54
2022/03/29 01:59:22;;;;;;;2.90;2.70;;;;;;;;;;5098542;28;20283;-53
2022/03/29 02:01:51;;;;;;;2.80;2.60;;;;;;;;;;5098809;28;20302;-53
2022/03/29 02:04:19;;;;;;;2.80;2.60;;;;;;;;;;5098883;28;20227;-54
2022/03/29 02:06:46;;;;;;;2.97;2.70;;;;;;;;;;5098758;28;20626;-54
2022/03/29 02:09:14;;;;;;;2.85;2.65;;;;;;;;;;5097080;28;20238;-54
2022/03/29 02:11:42;;;;;;;2.95;2.75;;;;;;;;;;5098162;28;20250;-54
2022/03/29 02:14:11;;;;;;;3.03;2.83;;;;;;;;;;5098501;28;20200;-54
2022/03/29 02:16:39;;;;;;;3.20;3.00;;;;;;;;;;5098368;28;20208;-54
2022/03/29 02:19:07;;;;;;;2.78;2.58;;;;;;;;;;5098725;28;20250;-54
2022/03/29 02:21:35;;;;;;;3.08;2.88;;;;;;;;;;5098183;28;20579;-54
2022/03/29 02:24:02;;;;;;;2.97;2.78;;;;;;;;;;5098471;28;20224;-54
2022/03/29 02:26:30;;;;;;;3.05;2.85;;;;;;;;;;5097958;28;20245;-54
2022/03/29 02:28:58;;;;;;;2.70;2.50;;;;;;;;;;5097903;28;20204;-54
2022/03/29 02:31:27;;;;;;;3.03;2.83;;;;;;;;;;5097845;28;20203;-54
2022/03/29 02:33:54;;;;;;;2.90;2.70;;;;;;;;;;5097185;28;20199;-54
2022/03/29 02:36:22;;;;;;;3.05;2.85;;;;;;;;;;5098019;28;20208;-54
2022/03/29 02:38:50;;;;;;;2.90;2.70;;;;;;;;;;5098300;28;20235;-54
2022/03/29 02:41:18;;;;;;;2.97;2.78;;;;;;;;;;5098036;28;20264;-54
2022/03/29 02:43:45;;;;;;;2.90;2.70;;;;;;;;;;5098360;28;20556;-54
2022/03/29 02:46:13;;;;;;;2.75;2.55;;;;;;;;;;5098033;28;20373;-54
2022/03/29 02:48:42;;;;;;;2.72;2.53;;;;;;;;;;5098195;28;20562;-54
2022/03/29 02:51:10;;;;;;;2.75;2.50;;;;;;;;;;5097989;28;20218;-54
2022/03/29 02:53:38;;;;;;;3.10;2.90;;;;;;;;;;5097219;28;20196;-54
2022/03/29 02:56:05;;;;;;;3.20;3.00;;;;;;;;;;5096529;28;20199;-54
2022/03/29 02:58:33;;;;;;;2.90;2.70;;;;;;;;;;5097361;28;20239;-54
2022/03/29 03:01:00;;;;;;;2.92;2.72;;;;;;;;;;5097089;28;20214;-54
2022/03/29 03:03:29;;;;;;;2.80;2.60;;;;;;;;;;5097034;28;20282;-54
2022/03/29 03:05:58;;;;;;;2.92;2.72;;;;;;;;;;5097430;28;20263;-54
2022/03/29 03:08:26;;;;;;;2.97;2.78;;;;;;;;;;5097306;28;20658;-54
2022/03/29 03:10:54;;;;;;;3.10;2.80;;;;;;;;;;5096678;28;20207;-54
2022/03/29 03:13:21;;;;;;;3.03;2.83;;;;;;;;;;5097619;28;20203;-54
2022/03/29 03:15:49;;;;;;;2.60;2.40;;;;;;;;;;5097740;28;20219;-54
2022/03/29 03:18:17;;;;;;;2.90;2.70;;;;;;;;;;5097384;28;20203;-54
2022/03/29 03:20:45;;;;;;;3.00;2.70;;;;;;;;;;5097325;28;20246;-54
2022/03/29 03:23:14;;;;;;;2.78;2.58;;;;;;;;;;5096823;28;20216;-54
2022/03/29 03:25:41;;;;;;;2.80;2.60;;;;;;;;;;5097139;28;20227;-54
2022/03/29 03:28:09;;;;;;;2.75;2.55;;;;;;;;;;5097125;28;20204;-54
2022/03/29 03:30:37;;;;;;;2.80;2.60;;;;;;;;;;5096932;28;20235;-54
2022/03/29 03:33:05;;;;;;;2.70;2.50;;;;;;;;;;5097322;28;20273;-54
2022/03/29 03:35:33;;;;;;;2.80;2.60;;;;;;;;;;5097248;28;20200;-54
2022/03/29 03:38:01;;;;;;;2.80;2.60;;;;;;;;;;5096975;28;20204;-54
2022/03/29 03:40:30;;;;;;;2.70;2.50;;;;;;;;;;5097910;28;20230;-54
2022/03/29 03:42:58;;;;;;;2.90;2.65;;;;;;;;;;5101719;28;20211;-54
2022/03/29 03:45:25;;;;;;;2.88;2.67;;;;;;;;;;5100901;28;20322;-54
2022/03/29 03:47:54;;;;;;;2.63;2.42;;;;;;;;;;5100666;28;20286;-54
2022/03/29 03:50:21;;;;;;;2.90;2.70;;;;;;;;;;5100819;28;20238;-54
2022/03/29 03:52:49;;;;;;;2.90;2.70;;;;;;;;;;5100498;28;20261;-54
2022/03/29 03:55:18;;;;;;;2.58;2.38;;;;;;;;;;5101234;28;20211;-54
2022/03/29 03:57:47;;;;;;;2.83;2.63;;;;;;;;;;5100609;28;20659;-54
2022/03/29 04:00:16;;;;;;;3.00;2.80;;;;;;;;;;5101201;28;20203;-54
2022/03/29 04:02:43;;;;;;;2.88;2.67;;;;;;;;;;5100951;28;20218;-54
2022/03/29 04:05:12;;;;;;;3.10;2.90;;;;;;;;;;5100609;28;20232;-54
2022/03/29 04:07:40;;;;;;;2.72;2.53;;;;;;;;;;5100467;28;20496;-54
2022/03/29 04:10:08;;;;;;;2.80;2.60;;;;;;;;;;5100437;28;20298;-54
2022/03/29 04:12:36;;;;;;;2.72;2.53;;;;;;;;;;5100413;28;20246;-54
2022/03/29 04:15:05;;;;;;;2.70;2.50;;;;;;;;;;5100308;28;20298;-54
2022/03/29 04:17:34;;;;;;;3.00;2.80;;;;;;;;;;5099725;28;20243;-54
2022/03/29 04:20:03;;;;;;;3.00;2.70;;;;;;;;;;5098812;28;20200;-54
2022/03/29 04:22:30;;;;;;;3.00;2.80;;;;;;;;;;5079106;28;20299;-54
2022/03/29 04:24:58;;;;;;;2.92;2.60;;;;;;;;;;5079176;28;20224;-54
2022/03/29 04:27:26;;;;;;;2.67;2.47;;;;;;;;;;5079346;28;20243;-54
2022/03/29 04:29:53;;;;;;;3.10;2.90;;;;;;;;;;5079201;28;20287;-54
2022/03/29 04:32:23;;;;;;;2.72;2.53;;;;;;;;;;5078764;28;20204;-54
2022/03/29 04:34:50;;;;;;;3.03;2.83;;;;;;;;;;5079433;28;20575;-54
2022/03/29 04:37:18;;;;;;;2.53;2.33;;;;;;;;;;5078903;28;20210;-54
2022/03/29 04:39:46;;;;;;;2.83;2.63;;;;;;;;;;5077748;28;20286;-54
2022/03/29 04:42:14;;;;;;;2.70;2.50;;;;;;;;;;5077907;28;20205;-53
2022/03/29 04:44:41;;;;;;;3.20;2.90;;;;;;;;;;5077011;28;20217;-53
2022/03/29 04:47:09;;;;;;;3.15;2.95;;;;;;;;;;5091692;28;20200;-54
2022/03/29 04:49:38;;;;;;;2.97;2.78;;;;;;;;;;5096609;28;20515;-54
2022/03/29 04:52:07;;;;;;;2.90;2.70;;;;;;;;;;5096449;28;20261;-54
2022/03/29 04:54:35;;;;;;;2.95;2.65;;;;;;;;;;5096864;28;20204;-54
2022/03/29 04:57:04;;;;;;;2.78;2.58;;;;;;;;;;5096394;28;20208;-54
2022/03/29 04:59:31;;;;;;;3.05;2.85;;;;;;;;;;5096517;28;20276;-54
2022/03/29 05:01:59;;;;;;;3.00;2.80;;;;;;;;;;5095337;28;20200;-54
2022/03/29 05:04:28;;;;;;;2.80;2.60;;;;;;;;;;5095532;28;20231;-54
2022/03/29 05:06:57;;;;;;;2.80;2.60;;;;;;;;;;5096942;28;20204;-54
2022/03/29 05:09:24;;;;;;;2.67;2.47;;;;;;;;;;5096923;28;20204;-54
2022/03/29 05:11:52;;;;;;;2.75;2.55;;;;;;;;;;5095879;28;20204;-54
2022/03/29 05:14:20;;;;;;;2.97;2.78;;;;;;;;;;5094802;28;20200;-54
2022/03/29 05:16:47;;;;;;;2.95;2.75;;;;;;;;;;5093841;28;20549;-54
2022/03/29 05:19:15;;;;;;;2.90;2.70;;;;;;;;;;5095870;28;20625;-54
2022/03/29 05:21:43;;;;;;;3.67;2.70;;;;;;;;;;5094410;28;20199;-54
2022/03/29 05:24:12;;;;;;;2.92;2.72;;;;;;;;;;5094286;28;20212;-54
2022/03/29 05:26:40;;;;;;;2.80;2.60;;;;;;;;;;5094472;28;20231;-54
2022/03/29 05:29:09;;;;;;;2.90;2.70;;;;;;;;;;5096916;28;20200;-54
2022/03/29 05:31:37;;;;;;;2.97;2.78;;;;;;;;;;5096152;28;20773;-54
2022/03/29 05:34:04;;;;;;;2.80;2.60;;;;;;;;;;5096395;28;20204;-54
2022/03/29 05:36:32;;;;;;;3.00;2.80;;;;;;;;;;5096118;28;20254;-54
2022/03/29 05:39:00;;;;;;;2.75;2.55;;;;;;;;;;5096744;28;20602;-54
2022/03/29 05:41:29;;;;;;;3.10;2.90;;;;;;;;;;5095185;28;20574;-54
2022/03/29 05:43:57;;;;;;;2.80;2.60;;;;;;;;;;5095449;28;20303;-54
2022/03/29 05:49:09;;;;;;;2.83;2.63;;;;;;;;;;5095451;28;20547;-54
2022/03/29 05:51:37;;;;;;;2.90;2.70;;;;;;;;;;5095406;28;20208;-54
2022/03/29 05:54:06;;;;;;;2.90;2.70;;;;;;;;;;5094384;28;20207;-54
2022/03/29 05:56:35;;;;;;;3.00;2.80;;;;;;;;;;5093662;28;20209;-54
2022/03/29 05:59:03;;;;;;;3.03;2.83;;;;;;;;;;5094799;28;20269;-54
2022/03/29 06:01:31;;;;;;;3.13;2.92;;;;;;;;;;5093726;28;20295;-54
2022/03/29 06:03:58;;;;;;;3.05;2.85;;;;;;;;;;5093383;28;20539;-54
2022/03/29 06:06:26;;;;;;;2.90;2.70;;;;;;;;;;5094498;28;20698;-54
2022/03/29 06:08:54;;;;;;;3.17;2.97;;;;;;;;;;5092801;28;20242;-54
2022/03/29 06:11:22;;;;;;;2.78;2.58;;;;;;;;;;5094373;28;20214;-54
2022/03/29 06:13:50;;;;;;;3.08;2.88;;;;;;;;;;5094066;28;20195;-54
2022/03/29 06:16:20;;;;;;;3.53;3.22;;;;;;;;;;5094383;28;20306;-54
2022/03/29 06:18:48;;;;;;;3.00;2.80;;;;;;;;;;5093651;28;20430;-54
2022/03/29 06:21:16;;;;;;;2.90;2.70;;;;;;;;;;5094443;28;20325;-54
2022/03/29 06:23:44;;;;;;;3.50;3.20;;;;;;;;;;5095415;28;20204;-53
2022/03/29 06:26:12;;;;;;;3.30;3.00;;;;;;;;;;5094152;28;20231;-53
2022/03/29 06:28:40;;;;;;;3.03;2.83;;;;;;;;;;5095784;28;20522;-53
2022/03/29 06:31:10;;;;;;;3.05;2.85;;;;;;;;;;5093762;28;20211;-53
2022/03/29 06:33:37;;;;;;;3.05;2.85;;;;;;;;;;5093861;28;20563;-53
2022/03/29 06:36:05;;;;;;;3.20;3.00;;;;;;;;;;5094497;28;20502;-53
2022/03/29 06:38:32;;;;;;;3.30;3.00;;;;;;;;;;5093455;28;20208;-53
2022/03/29 06:41:00;;;;;;;3.17;2.97;;;;;;;;;;5093497;28;20280;-53
2022/03/29 06:43:28;;;;;;;3.40;3.10;;;;;;;;;;5093848;28;20529;-53
2022/03/29 06:45:56;;;;;;;3.30;3.00;;;;;;;;;;5093557;28;20625;-53
2022/03/29 06:48:25;;;;;;;3.33;3.03;;;;;;;;;;5093907;28;20290;-53
2022/03/29 06:50:53;;;;;;;3.72;3.42;;;;;;;;;;5093457;28;20446;-53
2022/03/29 06:53:21;;;;;;;3.67;3.38;;;;;;;;;;5093835;28;20210;-53
2022/03/29 06:55:50;;;;;;;3.63;3.33;;;;;;;;;;5094134;28;20200;-53
2022/03/29 06:58:19;;;;;;;3.40;3.20;;;;;;;;;;5093987;28;20203;-53
2022/03/29 07:00:46;;;;;;;3.67;3.38;;;;;;;;;;5093127;28;20211;-53
2022/03/29 07:03:14;;;;;;;3.33;3.03;;;;;;;;;;5093280;28;20197;-54
2022/03/29 07:05:46;;;;;;;3.60;3.30;;;;;;;;;;5093292;28;20680;-54
2022/03/29 07:08:16;;;;;;;3.65;3.35;;;;;;;;;;5093073;28;20196;-54
2022/03/29 07:13:29;;;;;;;3.88;3.58;;;;;;;;;;5093042;28;20242;-54
2022/03/29 07:15:57;;;;;;;3.50;3.20;;;;;;;;;;5093276;28;20504;-54
2022/03/29 07:18:24;;;;;;;3.30;3.05;;;;;;;;;;5093167;28;20207;-54
2022/03/29 07:20:53;;;;;;;3.90;3.60;;;;;;;;;;5093105;28;20272;-54
2022/03/29 07:23:21;;;;;;;3.40;3.10;;;;;;;;;;5094006;28;20547;-54
2022/03/29 07:25:49;;;;;;;4.07;3.70;;;;;;;;;;5093258;28;20219;-54
2022/03/29 07:28:16;;;;;;;3.78;3.47;;;;;;;;;;5093847;28;20588;-54
2022/03/29 07:30:45;;;;;;;3.10;2.90;;;;;;;;;;5092668;28;20214;-54
2022/03/29 07:33:13;;;;;;;3.67;3.38;;;;;;;;;;5093779;28;20256;-54
2022/03/29 07:35:40;;;;;;;3.67;3.38;;;;;;;;;;5093421;28;20540;-54
2022/03/29 07:38:09;;;;;;;3.70;3.40;;;;;;;;;;5092343;28;20249;-54
2022/03/29 07:40:38;;;;;;;3.33;3.05;;;;;;;;;;5092889;28;20242;-54
2022/03/29 07:43:05;;;;;;;3.03;2.83;;;;;;;;;;5093805;28;20211;-54
2022/03/29 07:45:33;;;;;;;3.40;3.10;;;;;;;;;;5091753;28;20575;-54
2022/03/29 07:48:03;;;;;;;3.70;3.40;;;;;;;;;;5092125;28;20229;-53
2022/03/29 07:50:31;;;;;;;3.78;3.47;;;;;;;;;;5081573;28;20311;-54
2022/03/29 07:52:59;;;;;;;3.65;3.35;;;;;;;;;;5072366;28;20295;-54
2022/03/29 07:55:28;;;;;;;3.70;3.40;;;;;;;;;;5071234;28;20215;-54
2022/03/29 07:57:57;;;;;;;3.67;3.38;;;;;;;;;;5075154;28;20379;-54
2022/03/29 08:00:35;;;;;;;3.72;3.42;;;;;;;;;;5092014;28;20246;-54
2022/03/29 08:03:03;;;;;;;3.55;3.25;;;;;;;;;;5092071;28;20214;-54
2022/03/29 08:05:31;;;;;;;4.10;3.80;;;;;;;;;;5092892;28;20502;-54
2022/03/29 08:07:59;;;;;;;3.70;3.40;;;;;;;;;;5092554;28;20223;-54
2022/03/29 08:10:28;;;;;;;3.70;3.30;;;;;;;;;;5092959;28;20200;-54
2022/03/29 08:12:57;;;;;;;3.47;3.17;;;;;;;;;;5092221;28;20480;-54
2022/03/29 08:15:25;;;;;;;3.53;3.22;;;;;;;;;;5092190;28;20299;-54
2022/03/29 08:17:53;;;;;;;3.88;3.47;;;;;;;;;;5092116;28;20302;-54
2022/03/29 08:20:21;;;;;;;4.15;3.80;;;;;;;;;;5092103;28;20203;-54
2022/03/29 08:22:49;;;;;;;3.58;3.28;;;;;;;;;;5092821;28;20200;-54
2022/03/29 08:25:17;;;;;;;3.90;3.60;;;;;;;;;;5091433;28;20282;-54
2022/03/29 08:27:46;;;;;;;4.05;3.47;;;;;;;;;;5094011;28;20227;-54
2022/03/29 08:30:15;;;;;;;4.28;3.85;;;;;;;;;;5097114;28;20208;-54
2022/03/29 08:32:42;;;;;;;3.85;3.55;;;;;;;;;;5096192;28;20204;-54
2022/03/29 08:35:12;;;;;;;3.95;3.55;;;;;;;;;;5096789;28;20290;-54
2022/03/29 08:37:40;;;;;;;4.30;3.90;;;;;;;;;;5095155;28;20203;-54
2022/03/29 08:40:10;;;;;;;3.72;3.40;;;;;;;;;;5092888;28;20196;-54
2022/03/29 08:42:37;;;;;;;4.85;3.42;;;;;;;;;;5095167;28;20270;-54
2022/03/29 08:45:09;;;;;;;4.85;4.07;;;;;;;;;;5096503;28;20319;-54
2022/03/29 08:47:37;;;;;;;4.07;3.78;;;;;;;;;;5095891;28;20614;-54
2022/03/29 08:50:05;;;;;;;4.18;3.88;;;;;;;;;;5095682;28;20330;-53
2022/03/29 08:52:32;;;;;;;4.35;3.95;;;;;;;;;;5095409;28;20330;-54
2022/03/29 08:55:03;;;;;;;4.25;3.90;;;;;;;;;;5094936;28;20701;-54
2022/03/29 08:57:30;;;;;;;4.70;4.30;;;;;;;;;;5094619;28;20227;-54
2022/03/29 08:59:58;;;;;;;4.85;4.35;;;;;;;;;;5095380;28;20290;-54
2022/03/29 09:02:28;;;;;;;4.78;4.30;;;;;;;;;;5094994;28;20484;-54
2022/03/29 09:05:08;;;;;;;5.65;4.80;;;;;;;;;;5094914;28;20210;-54
2022/03/29 09:07:49;;;;;;;6.25;5.65;;;;;;;;;;5094183;28;20227;-54
2022/03/29 09:10:17;;;;;;;5.78;5.28;;;;;;;;;;5094379;28;20214;-54
2022/03/29 09:12:44;;;;;;;109.28;97.75;;;;;;;;;;5093668;28;20214;-53
2022/03/29 09:15:12;;;;;;;108.75;97.38;;;;;;;;;;5096481;28;20599;-53
2022/03/29 09:17:42;;;;;;;93.30;83.25;;;;;;;;;;5095998;28;20200;-54
2022/03/29 09:20:11;;;;;;;95.40;85.38;;;;;;;;;;5095942;28;20683;-54
2022/03/29 09:22:41;;;;;;;96.05;85.78;;;;;;;;;;5095775;28;20218;-54
2022/03/29 09:25:10;;;;;;;106.30;95.32;;;;;;;;;;5096465;28;20204;-54
2022/03/29 09:27:57;;;;;;;216.68;196.23;;;;;;;;;;5096188;28;20341;-54
2022/03/29 09:30:25;;;;;;;188.52;170.30;;;;;;;;;;5101153;28;20293;-54
2022/03/29 09:33:04;;;;;;;156.77;141.50;;;;;;;;;;5086015;28;20228;-54
2022/03/29 09:35:32;;;;;;;150.07;135.63;;;;;;;;;;5092428;28;20199;-54
2022/03/29 09:38:01;;;;;;;148.90;134.50;;;;;;;;;;5094518;28;20497;-54
2022/03/29 09:40:37;;;;;;;141.45;127.60;;;;;;;;;;5095685;28;20511;-54
2022/03/29 09:43:06;;;;;;;136.27;123.18;;;;;;;;;;5095761;28;20204;-54
2022/03/29 09:45:44;;;;;;;135.18;122.18;;;;;;;;;;5088264;28;20739;-54
2022/03/29 09:48:29;;;;;;;129.15;116.75;;;;;;;;;;5092714;28;20315;-54
2022/03/29 09:50:58;;;;;;;128.30;115.90;;;;;;;;;;5094989;28;20286;-54
2022/03/29 09:53:35;;;;;;;123.70;111.70;;;;;;;;;;5095391;28;20478;-54
2022/03/29 09:56:02;;;;;;;118.85;107.25;;;;;;;;;;5095074;28;20203;-54
2022/03/29 09:58:30;;;;;;;114.70;103.55;;;;;;;;;;5094516;28;20297;-54
2022/03/29 10:00:57;;;;;;;111.47;100.70;;;;;;;;;;5094825;28;20203;-54
2022/03/29 10:03:26;;;;;;;110.65;99.80;;;;;;;;;;5095290;28;20333;-54
2022/03/29 10:06:01;;;;;;;105.93;95.53;;;;;;;;;;5095270;28;20575;-54
2022/03/29 10:11:15;;;;;;;97.80;88.40;;;;;;;;;;5091961;28;20268;-54
2022/03/29 10:13:42;;;;;;;97.57;88.30;;;;;;;;;;5093791;28;20242;-54
2022/03/29 10:16:12;;;;;;;92.70;83.82;;;;;;;;;;5091746;28;20214;-54
2022/03/29 10:18:40;;;;;;;94.65;85.53;;;;;;;;;;5092789;28;20521;-53
2022/03/29 10:21:09;;;;;;;93.88;85.07;;;;;;;;;;5091929;28;20547;-54
2022/03/29 10:23:38;;;;;;;84.22;75.88;;;;;;;;;;5092065;28;20628;-54
2022/03/29 10:26:05;;;;;;;86.38;77.85;;;;;;;;;;5092030;28;20269;-54
2022/03/29 10:28:33;;;;;;;82.97;75.15;;;;;;;;;;5093701;28;20215;-54
2022/03/29 10:31:00;;;;;;;81.30;72.90;;;;;;;;;;5094065;28;20294;-54
2022/03/29 10:33:30;;;;;;;78.22;70.63;;;;;;;;;;5094308;28;20489;-54
2022/03/29 10:36:10;;;;;;;77.60;69.82;;;;;;;;;;5091028;28;20204;-54
2022/03/29 10:38:57;;;;;;;74.97;67.75;;;;;;;;;;5092359;28;20698;-54
2022/03/29 10:41:53;;;;;;;71.32;64.18;;;;;;;;;;5093940;28;20285;-54
2022/03/29 10:44:20;;;;;;;69.18;62.03;;;;;;;;;;5091080;28;20192;-54
2022/03/29 10:46:49;;;;;;;69.95;63.05;;;;;;;;;;5090417;28;20270;-54
2022/03/29 10:49:17;;;;;;;69.07;62.38;;;;;;;;;;5089674;28;20335;-54
2022/03/29 10:51:45;;;;;;;66.57;60.08;;;;;;;;;;5092098;28;20287;-54
2022/03/29 10:54:26;;;;;;;66.22;59.72;;;;;;;;;;5090088;28;20200;-54
2022/03/29 10:57:00;;;;;;;62.55;56.40;;;;;;;;;;5090076;28;20282;-54
2022/03/29 10:59:28;;;;;;;63.53;57.30;;;;;;;;;;5090985;28;20302;-54
2022/03/29 11:02:09;;;;;;;62.67;56.67;;;;;;;;;;5090848;28;20298;-54
2022/03/29 11:04:37;;;;;;;59.78;54.10;;;;;;;;;;5091903;28;20299;-54
2022/03/29 11:07:13;;;;;;;59.83;54.13;;;;;;;;;;5090574;28;20328;-54
2022/03/29 11:09:41;;;;;;;57.90;52.40;;;;;;;;;;5090106;28;20570;-54
2022/03/29 11:12:30;;;;;;;57.05;51.45;;;;;;;;;;5091330;28;20418;-54
2022/03/29 11:14:57;;;;;;;54.63;49.25;;;;;;;;;;5092262;28;20277;-54
2022/03/29 11:17:41;;;;;;;54.70;49.35;;;;;;;;;;5089925;28;20587;-54
2022/03/29 11:20:27;;;;;;;52.85;47.83;;;;;;;;;;5091816;28;20211;-54
2022/03/29 11:22:57;;;;;;;52.60;47.42;;;;;;;;;;5091969;28;20196;-54
2022/03/29 11:25:24;;;;;;;50.38;45.38;;;;;;;;;;5091674;28;20204;-54
2022/03/29 11:27:52;;;;;;;50.28;45.33;;;;;;;;;;5091727;28;20709;-54
2022/03/29 11:30:20;;;;;;;49.60;44.53;;;;;;;;;;5092348;28;20718;-54
2022/03/29 11:32:49;;;;;;;47.40;42.95;;;;;;;;;;5092274;28;20294;-54
2022/03/29 11:35:19;;;;;;;46.13;41.70;;;;;;;;;;5090853;28;20207;-54
2022/03/29 11:37:49;;;;;;;46.53;42.10;;;;;;;;;;5091358;28;20561;-54
2022/03/29 11:40:23;;;;;;;46.63;42.13;;;;;;;;;;5089431;28;20249;-54
2022/03/29 11:42:52;;;;;;;47.28;42.65;;;;;;;;;;5090598;28;20202;-54
2022/03/29 11:45:21;;;;;;;43.05;39.03;;;;;;;;;;5091178;28;20489;-54
2022/03/29 11:47:55;;;;;;;43.63;39.40;;;;;;;;;;5090846;28;20228;-54
2022/03/29 11:50:32;;;;;;;41.72;37.78;;;;;;;;;;5090232;28;20400;-54
2022/03/29 11:53:00;;;;;;;42.25;38.30;;;;;;;;;;5090280;28;20634;-54
2022/03/29 11:55:29;;;;;;;41.38;37.47;;;;;;;;;;5091088;28;20546;-54
2022/03/29 11:57:57;;;;;;;41.20;37.17;;;;;;;;;;5092022;28;20227;-54
2022/03/29 12:00:25;;;;;;;40.47;36.58;;;;;;;;;;5090210;28;20435;-54
2022/03/29 12:02:53;;;;;;;38.45;34.75;;;;;;;;;;5094257;28;20412;-54
2022/03/29 12:05:21;;;;;;;37.47;33.92;;;;;;;;;;5094973;28;20723;-54
2022/03/29 12:07:49;;;;;;;37.08;33.50;;;;;;;;;;5095024;28;20568;-54
2022/03/29 12:10:27;;;;;;;36.90;33.40;;;;;;;;;;5095870;28;20304;-54
2022/03/29 12:12:55;;;;;;;36.90;33.30;;;;;;;;;;5094430;28;20269;-54
2022/03/29 12:15:23;;;;;;;36.33;32.92;;;;;;;;;;5074943;28;20303;-54
2022/03/29 12:18:40;;;;;;;33.83;30.55;;;;;;;;;;5073652;28;20228;-54
2022/03/29 12:20:45;;;;;;;34.97;31.60;;;;;;;;;;5073714;28;20507;-54
2022/03/29 12:23:20;;;;;;;34.28;30.98;;;;;;;;;;5073709;28;20294;-54
2022/03/29 12:25:49;;;;;;;33.30;30.02;;;;;;;;;;5072991;28;20215;-54
2022/03/29 12:28:21;;;;;;;33.20;29.98;;;;;;;;;;5090393;28;20628;-54
2022/03/29 12:30:48;;;;;;;31.92;28.88;;;;;;;;;;5093842;28;20204;-54
2022/03/29 12:33:16;;;;;;;32.47;29.38;;;;;;;;;;5093395;28;20650;-54
2022/03/29 12:35:44;;;;;;;30.92;27.95;;;;;;;;;;5093291;28;20337;-54
2022/03/29 12:38:12;;;;;;;30.58;27.58;;;;;;;;;;5091450;28;20289;-54
2022/03/29 12:40:40;;;;;;;30.77;27.80;;;;;;;;;;5093495;28;20253;-54
2022/03/29 12:43:08;;;;;;;29.00;26.25;;;;;;;;;;5093383;28;20298;-54
2022/03/29 12:45:40;;;;;;;29.13;26.42;;;;;;;;;;5092180;28;20311;-54
2022/03/29 12:48:07;;;;;;;29.67;26.88;;;;;;;;;;5095368;28;20219;-54
2022/03/29 12:50:35;;;;;;;29.48;26.75;;;;;;;;;;5095730;28;20227;-54
2022/03/29 12:53:07;;;;;;;28.13;25.50;;;;;;;;;;5094555;28;20243;-54
2022/03/29 12:55:35;;;;;;;26.63;24.13;;;;;;;;;;5091978;28;20212;-54
2022/03/29 12:58:03;;;;;;;28.02;25.25;;;;;;;;;;5093216;28;20208;-54
2022/03/29 13:00:39;;;;;;;26.88;24.35;;;;;;;;;;5091889;28;20712;-54
2022/03/29 13:03:08;;;;;;;27.27;24.67;;;;;;;;;;5092240;28;20302;-54
2022/03/29 13:05:36;;;;;;;26.75;24.25;;;;;;;;;;5094193;28;20581;-54
2022/03/29 13:08:04;;;;;;;25.73;23.33;;;;;;;;;;5093828;28;20624;-54
2022/03/29 13:10:35;;;;;;;25.65;23.25;;;;;;;;;;5093305;28;20302;-54
2022/03/29 13:13:04;;;;;;;25.23;22.88;;;;;;;;;;5090767;28;20291;-54
2022/03/29 13:15:50;;;;;;;26.20;23.60;;;;;;;;;;5092693;28;20207;-54
2022/03/29 13:18:26;;;;;;;23.60;21.40;;;;;;;;;;5092851;28;20207;-54
2022/03/29 13:20:54;;;;;;;23.75;21.55;;;;;;;;;;5093240;28;20347;-54
2022/03/29 13:23:31;;;;;;;23.05;20.83;;;;;;;;;;5093440;28;20571;-54
2022/03/29 13:25:58;;;;;;;23.75;21.45;;;;;;;;;;5092179;28;20357;-54
2022/03/29 13:28:27;;;;;;;23.23;21.08;;;;;;;;;;5092639;28;20247;-54
2022/03/29 13:30:54;;;;;;;23.40;21.20;;;;;;;;;;5092970;28;20195;-54
2022/03/29 13:33:21;;;;;;;22.58;20.38;;;;;;;;;;5093034;28;20291;-54
2022/03/29 13:35:51;;;;;;;21.98;19.88;;;;;;;;;;5090851;28;20203;-54
2022/03/29 13:38:19;;;;;;;21.85;19.77;;;;;;;;;;5092163;28;20200;-54
2022/03/29 13:40:46;;;;;;;21.75;19.70;;;;;;;;;;5092889;28;20306;-54
2022/03/29 13:43:14;;;;;;;21.90;19.83;;;;;;;;;;5092532;28;20294;-54
2022/03/29 13:45:42;;;;;;;20.48;18.50;;;;;;;;;;5093641;28;20211;-54
2022/03/29 13:48:09;;;;;;;20.98;18.98;;;;;;;;;;5093216;28;20498;-54
2022/03/29 13:50:37;;;;;;;21.10;19.20;;;;;;;;;;5091974;28;20334;-54
2022/03/29 13:53:06;;;;;;;20.40;18.50;;;;;;;;;;5091305;28;20309;-54
2022/03/29 13:55:34;;;;;;;19.67;17.77;;;;;;;;;;5092334;28;20314;-54
2022/03/29 13:58:04;;;;;;;19.48;17.58;;;;;;;;;;5092429;28;20199;-54
2022/03/29 14:00:32;;;;;;;19.13;17.33;;;;;;;;;;5092169;28;20479;-54
2022/03/29 14:03:01;;;;;;;19.42;17.52;;;;;;;;;;5092846;28;20214;-54
2022/03/29 14:05:28;;;;;;;19.63;17.73;;;;;;;;;;5091981;28;20550;-51
2022/03/29 14:07:56;;;;;;;18.60;16.77;;;;;;;;;;5092204;28;20249;-51
2022/03/29 14:10:25;;;;;;;19.23;17.38;;;;;;;;;;5093249;28;20674;-51
2022/03/29 14:12:53;;;;;;;18.20;16.40;;;;;;;;;;5092541;28;20211;-51
2022/03/29 14:15:21;;;;;;;19.02;17.15;;;;;;;;;;5092701;28;20239;-51
2022/03/29 14:17:48;;;;;;;18.27;16.48;;;;;;;;;;5092318;28;20200;-51
2022/03/29 14:20:16;;;;;;;17.55;15.90;;;;;;;;;;5091310;28;20299;-51
2022/03/29 14:22:44;;;;;;;18.02;16.33;;;;;;;;;;5091646;28;20418;-51
2022/03/29 14:25:12;;;;;;;18.08;16.30;;;;;;;;;;5091775;28;20208;-52
2022/03/29 14:27:42;;;;;;;17.15;15.45;;;;;;;;;;5091981;28;20286;-52
2022/03/29 14:30:10;;;;;;;17.38;15.68;;;;;;;;;;5092605;28;20196;-51
2022/03/29 14:32:38;;;;;;;17.13;15.43;;;;;;;;;;5091179;28;20298;-51
2022/03/29 14:35:06;;;;;;;17.10;15.48;;;;;;;;;;5092009;28;20456;-51
2022/03/29 14:37:33;;;;;;;16.13;14.63;;;;;;;;;;5091932;28;20196;-51
2022/03/29 14:40:01;;;;;;;16.05;14.55;;;;;;;;;;5092095;28;20298;-51
2022/03/29 14:42:29;;;;;;;15.48;14.02;;;;;;;;;;5090631;28;20257;-51
2022/03/29 14:44:58;;;;;;;15.73;14.23;;;;;;;;;;5090375;28;20310;-53
2022/03/29 14:47:26;;;;;;;16.55;14.95;;;;;;;;;;5091651;28;20268;-54
2022/03/29 14:49:53;;;;;;;16.42;14.82;;;;;;;;;;5091197;28;20698;-54
2022/03/29 14:52:20;;;;;;;15.88;14.27;;;;;;;;;;5092119;28;20196;-54